Time,TemperatureF,DewpointF,PressureIn,WindDirection,WindDirectionDegrees,WindSpeedMPH,WindSpeedGustMPH,Humidity,HourlyPrecipIn,Conditions,Clouds,dailyrainin,SoftwareType,DateUTC
2013-07-12 00:00:00,68.9,58.5,29.92,SE,135,0.4,0.4,69,0.00,,,0.00,WUHU216HW,2013-07-12 04:00:00,
2013-07-12 00:01:00,68.9,58.5,29.92,SE,135,0.4,0.4,69,0.00,,,0.00,WUHU216HW,2013-07-12 04:01:00,
2013-07-12 00:02:00,68.9,58.5,29.92,SE,135,0.4,0.4,69,0.00,,,0.00,WUHU216HW,2013-07-12 04:02:00,
2013-07-12 00:07:00,68.9,58.5,29.92,SE,135,0.4,0.4,69,0.00,,,0.00,WUHU216HW,2013-07-12 04:07:00,
2013-07-12 00:30:00,68.6,58.6,29.93,SE,135,0.0,0.0,70,0.00,,,0.00,WUHU216HW,2013-07-12 04:30:00,
2013-07-12 00:35:00,68.6,58.6,29.93,SE,135,0.0,0.0,70,0.00,,,0.00,WUHU216HW,2013-07-12 04:35:00,
2013-07-12 01:00:00,68.2,58.6,29.92,ESE,113,0.2,0.2,71,0.00,,,0.00,WUHU216HW,2013-07-12 05:00:00,
2013-07-12 01:05:00,68.2,58.6,29.92,ESE,113,0.2,0.2,71,0.00,,,0.00,WUHU216HW,2013-07-12 05:05:00,
2013-07-12 01:30:00,67.8,59.0,29.92,WNW,293,0.0,0.0,73,0.00,,,0.00,WUHU216HW,2013-07-12 05:30:00,
2013-07-12 01:35:00,67.8,59.0,29.92,WNW,293,0.0,0.0,73,0.00,,,0.00,WUHU216HW,2013-07-12 05:35:00,
2013-07-12 02:00:00,67.5,59.1,29.92,NNE,23,0.0,0.0,74,0.00,,,0.00,WUHU216HW,2013-07-12 06:00:00,
2013-07-12 02:05:00,67.5,59.1,29.92,NNE,23,0.0,0.0,74,0.00,,,0.00,WUHU216HW,2013-07-12 06:05:00,
2013-07-12 02:30:00,67.5,59.1,29.92,East,90,0.4,0.4,74,0.00,,,0.00,WUHU216HW,2013-07-12 06:30:00,
2013-07-12 02:35:00,67.5,59.1,29.92,East,90,0.4,0.4,74,0.00,,,0.00,WUHU216HW,2013-07-12 06:35:00,
2013-07-12 03:00:00,68.0,58.8,29.93,East,90,1.6,1.6,72,0.00,,,0.00,WUHU216HW,2013-07-12 07:00:00,
2013-07-12 03:05:00,68.0,58.8,29.93,East,90,1.6,1.6,72,0.00,,,0.00,WUHU216HW,2013-07-12 07:05:00,
2013-07-12 03:30:00,68.0,58.4,29.93,NNW,338,0.4,0.4,71,0.00,,,0.00,WUHU216HW,2013-07-12 07:30:00,
2013-07-12 03:35:00,68.0,58.4,29.93,NNW,338,0.4,0.4,71,0.00,,,0.00,WUHU216HW,2013-07-12 07:35:00,
2013-07-12 04:00:00,67.7,57.7,29.94,ESE,113,0.7,0.7,70,0.00,,,0.00,WUHU216HW,2013-07-12 08:00:00,
2013-07-12 04:05:00,67.7,57.7,29.94,ESE,113,0.7,0.7,70,0.00,,,0.00,WUHU216HW,2013-07-12 08:05:00,
2013-07-12 04:30:00,67.5,57.9,29.95,NW,315,0.0,0.0,71,0.00,,,0.00,WUHU216HW,2013-07-12 08:30:00,
2013-07-12 04:35:00,67.5,57.9,29.95,NW,315,0.0,0.0,71,0.00,,,0.00,WUHU216HW,2013-07-12 08:35:00,
2013-07-12 05:00:00,67.3,58.1,29.95,WSW,248,0.0,0.0,72,0.00,,,0.00,WUHU216HW,2013-07-12 09:00:00,
2013-07-12 05:05:00,67.3,58.1,29.95,WSW,248,0.0,0.0,72,0.00,,,0.00,WUHU216HW,2013-07-12 09:05:00,
2013-07-12 05:30:00,66.6,58.2,29.96,West,270,0.0,0.0,74,0.00,,,0.00,WUHU216HW,2013-07-12 09:30:00,
2013-07-12 05:35:00,66.6,58.2,29.96,West,270,0.0,0.0,74,0.00,,,0.00,WUHU216HW,2013-07-12 09:35:00,
2013-07-12 06:00:00,66.0,58.0,29.97,East,90,0.0,0.0,75,0.00,,,0.00,WUHU216HW,2013-07-12 10:00:00,
2013-07-12 06:05:00,66.0,58.0,29.97,East,90,0.0,0.0,75,0.00,,,0.00,WUHU216HW,2013-07-12 10:05:00,
2013-07-12 06:30:00,66.2,58.2,29.98,SSE,158,0.0,0.0,75,0.00,,,0.00,WUHU216HW,2013-07-12 10:30:00,
2013-07-12 06:35:00,66.2,58.2,29.98,SSE,158,0.0,0.0,75,0.00,,,0.00,WUHU216HW,2013-07-12 10:35:00,
2013-07-12 07:00:00,66.0,58.7,29.98,NNW,338,0.2,0.2,77,0.00,,,0.00,WUHU216HW,2013-07-12 11:00:00,
2013-07-12 07:05:00,66.0,58.7,29.98,NNW,338,0.2,0.2,77,0.00,,,0.00,WUHU216HW,2013-07-12 11:05:00,
2013-07-12 07:30:00,66.8,59.5,29.99,NNW,338,0.9,0.9,77,0.00,,,0.00,WUHU216HW,2013-07-12 11:30:00,
2013-07-12 07:35:00,66.8,59.5,29.99,NNW,338,0.9,0.9,77,0.00,,,0.00,WUHU216HW,2013-07-12 11:35:00,
2013-07-12 08:00:00,67.5,59.8,29.98,ENE,68,0.4,0.4,76,0.00,,,0.00,WUHU216HW,2013-07-12 12:00:00,
2013-07-12 08:05:00,67.5,59.8,29.98,ENE,68,0.4,0.4,76,0.00,,,0.00,WUHU216HW,2013-07-12 12:05:00,
2013-07-12 08:30:00,68.4,60.3,29.99,ESE,113,0.0,0.0,75,0.00,,,0.00,WUHU216HW,2013-07-12 12:30:00,
2013-07-12 08:35:00,68.4,60.3,29.99,ESE,113,0.0,0.0,75,0.00,,,0.00,WUHU216HW,2013-07-12 12:35:00,
2013-07-12 09:00:00,69.1,60.6,30.00,SW,225,0.4,0.4,74,0.00,,,0.00,WUHU216HW,2013-07-12 13:00:00,
2013-07-12 09:05:00,69.1,60.6,30.00,SW,225,0.4,0.4,74,0.00,,,0.00,WUHU216HW,2013-07-12 13:05:00,
2013-07-12 09:30:00,70.0,61.5,30.01,West,270,1.3,1.3,74,0.00,,,0.00,WUHU216HW,2013-07-12 13:30:00,
2013-07-12 09:35:00,70.0,61.5,30.01,West,270,1.3,1.3,74,0.00,,,0.00,WUHU216HW,2013-07-12 13:35:00,
2013-07-12 10:00:00,71.1,62.5,30.00,SSW,203,0.4,0.4,74,0.00,,,0.00,WUHU216HW,2013-07-12 14:00:00,
2013-07-12 10:05:00,71.1,62.5,30.00,SSW,203,0.4,0.4,74,0.00,,,0.00,WUHU216HW,2013-07-12 14:05:00,
2013-07-12 10:30:00,71.4,62.8,30.00,East,90,1.1,1.1,74,0.00,,,0.00,WUHU216HW,2013-07-12 14:30:00,
2013-07-12 10:35:00,71.4,62.8,30.00,East,90,1.1,1.1,74,0.00,,,0.00,WUHU216HW,2013-07-12 14:35:00,
2013-07-12 11:00:00,72.7,63.3,30.01,SW,225,1.1,1.1,72,0.00,,,0.00,WUHU216HW,2013-07-12 15:00:00,
2013-07-12 11:05:00,72.7,63.3,30.01,SW,225,1.1,1.1,72,0.00,,,0.00,WUHU216HW,2013-07-12 15:05:00,
2013-07-12 11:30:00,72.7,63.7,30.01,NE,45,1.1,1.1,73,0.00,,,0.00,WUHU216HW,2013-07-12 15:30:00,
2013-07-12 11:35:00,72.7,63.7,30.01,NE,45,1.1,1.1,73,0.00,,,0.00,WUHU216HW,2013-07-12 15:35:00,
2013-07-12 12:00:00,73.6,64.2,30.02,SSE,158,0.2,0.2,72,0.00,,,0.00,WUHU216HW,2013-07-12 16:00:00,
2013-07-12 12:05:00,73.6,64.2,30.02,SSE,158,0.2,0.2,72,0.00,,,0.00,WUHU216HW,2013-07-12 16:05:00,
2013-07-12 12:30:00,74.7,64.9,30.02,East,90,1.1,1.1,71,0.00,,,0.00,WUHU216HW,2013-07-12 16:30:00,
2013-07-12 12:35:00,74.7,64.9,30.02,East,90,1.1,1.1,71,0.00,,,0.00,WUHU216HW,2013-07-12 16:35:00,
2013-07-12 13:00:00,74.7,64.5,30.02,NW,315,2.9,2.9,70,0.00,,,0.00,WUHU216HW,2013-07-12 17:00:00,
2013-07-12 13:05:00,74.7,64.5,30.02,NW,315,2.9,2.9,70,0.00,,,0.00,WUHU216HW,2013-07-12 17:05:00,
2013-07-12 13:30:00,74.7,64.9,30.02,SSE,158,0.9,0.9,71,0.00,,,0.00,WUHU216HW,2013-07-12 17:30:00,
2013-07-12 13:35:00,74.7,64.9,30.02,SSE,158,0.9,0.9,71,0.00,,,0.00,WUHU216HW,2013-07-12 17:35:00,
2013-07-12 14:00:00,74.3,64.5,30.02,East,90,1.8,1.8,71,0.00,,,0.00,WUHU216HW,2013-07-12 18:00:00,
2013-07-12 14:05:00,74.3,64.5,30.02,East,90,1.8,1.8,71,0.00,,,0.00,WUHU216HW,2013-07-12 18:05:00,
2013-07-12 14:30:00,74.7,65.3,30.02,South,180,0.7,0.7,72,0.00,,,0.00,WUHU216HW,2013-07-12 18:30:00,
2013-07-12 14:35:00,74.7,65.3,30.02,South,180,0.7,0.7,72,0.00,,,0.00,WUHU216HW,2013-07-12 18:35:00,
2013-07-12 15:00:00,74.5,64.7,30.02,SSE,158,0.9,0.9,71,0.00,,,0.00,WUHU216HW,2013-07-12 19:00:00,
2013-07-12 15:05:00,74.5,64.7,30.02,SSE,158,0.9,0.9,71,0.00,,,0.00,WUHU216HW,2013-07-12 19:05:00,
2013-07-12 15:30:00,73.8,64.8,30.02,West,270,0.2,0.2,73,0.00,,,0.00,WUHU216HW,2013-07-12 19:30:00,
2013-07-12 15:35:00,73.8,64.8,30.02,West,270,0.2,0.2,73,0.00,,,0.00,WUHU216HW,2013-07-12 19:35:00,
2013-07-12 16:00:00,74.0,66.1,30.02,SE,135,0.9,0.9,76,0.00,,,0.00,WUHU216HW,2013-07-12 20:00:00,
2013-07-12 16:05:00,74.0,66.1,30.02,SE,135,0.9,0.9,76,0.00,,,0.00,WUHU216HW,2013-07-12 20:05:00,
2013-07-12 16:30:00,72.9,65.8,30.02,SSE,158,0.2,0.2,78,0.00,,,0.00,WUHU216HW,2013-07-12 20:30:00,
2013-07-12 16:36:00,72.9,65.8,30.02,SSE,158,0.2,0.2,78,0.00,,,0.00,WUHU216HW,2013-07-12 20:36:00,
2013-07-12 17:00:00,72.0,65.9,30.02,NNW,338,0.9,0.9,81,0.00,,,0.00,WUHU216HW,2013-07-12 21:00:00,
2013-07-12 17:05:00,72.0,65.9,30.02,NNW,338,0.9,0.9,81,0.00,,,0.00,WUHU216HW,2013-07-12 21:05:00,
2013-07-12 17:30:00,70.5,64.8,30.03,West,270,0.4,0.4,82,0.00,,,0.00,WUHU216HW,2013-07-12 21:30:00,
2013-07-12 17:35:00,70.5,64.8,30.03,West,270,0.4,0.4,82,0.00,,,0.00,WUHU216HW,2013-07-12 21:35:00,
2013-07-12 18:00:00,69.8,64.5,30.03,NNW,338,1.3,1.3,83,0.00,,,0.00,WUHU216HW,2013-07-12 22:00:00,
2013-07-12 18:05:00,69.8,64.5,30.03,NNW,338,1.3,1.3,83,0.00,,,0.00,WUHU216HW,2013-07-12 22:05:00,
2013-07-12 18:30:00,69.5,64.8,30.02,SE,135,1.3,1.3,85,0.00,,,0.00,WUHU216HW,2013-07-12 22:30:00,
2013-07-12 18:35:00,69.5,64.8,30.02,SE,135,1.3,1.3,85,0.00,,,0.00,WUHU216HW,2013-07-12 22:35:00,
2013-07-12 19:00:00,69.3,64.6,30.03,NW,315,0.0,0.0,85,0.00,,,0.00,WUHU216HW,2013-07-12 23:00:00,
2013-07-12 19:05:00,69.3,64.6,30.03,NW,315,0.0,0.0,85,0.00,,,0.00,WUHU216HW,2013-07-12 23:05:00,
2013-07-12 19:30:00,69.5,64.8,30.03,East,90,0.7,0.7,85,0.00,,,0.00,WUHU216HW,2013-07-12 23:30:00,
2013-07-12 19:35:00,69.6,64.9,30.03,SE,135,1.1,1.1,85,0.00,,,0.00,WUHU216HW,2013-07-12 23:35:00,
2013-07-12 19:40:00,69.6,64.9,30.03,South,180,0.0,1.1,85,0.00,,,0.00,WUHU216HW,2013-07-12 23:40:00,
2013-07-12 19:45:00,69.5,64.8,30.03,SSE,158,0.2,1.1,85,0.00,,,0.00,WUHU216HW,2013-07-12 23:45:00,
2013-07-12 19:51:00,69.5,64.8,30.03,WNW,293,0.9,0.9,85,0.00,,,0.00,WUHU216HW,2013-07-12 23:51:00,
2013-07-12 19:56:00,69.5,64.8,30.03,NNE,23,0.4,0.9,85,0.00,,,0.00,WUHU216HW,2013-07-12 23:56:00,
2013-07-12 20:01:00,69.3,64.9,30.03,SW,225,0.0,1.3,86,0.00,,,0.00,WUHU216HW,2013-07-13 00:01:00,
2013-07-12 20:06:00,69.3,64.9,30.03,ESE,113,2.2,2.2,86,0.00,,,0.00,WUHU216HW,2013-07-13 00:06:00,
2013-07-12 20:11:00,69.1,64.7,30.03,ESE,113,1.6,2.2,86,0.00,,,0.00,WUHU216HW,2013-07-13 00:11:00,
2013-07-12 20:16:00,69.1,64.7,30.03,SE,135,0.2,1.6,86,0.00,,,0.00,WUHU216HW,2013-07-13 00:16:00,
2013-07-12 20:21:00,69.1,64.7,30.03,WNW,293,0.0,1.6,86,0.00,,,0.00,WUHU216HW,2013-07-13 00:21:00,
2013-07-12 20:26:00,69.1,65.1,30.04,ESE,113,0.4,1.8,87,0.00,,,0.00,WUHU216HW,2013-07-13 00:26:00,
2013-07-12 20:31:00,68.9,64.9,30.04,ESE,113,1.3,1.8,87,0.00,,,0.00,WUHU216HW,2013-07-13 00:31:00,
2013-07-12 20:36:00,68.9,64.9,30.04,ENE,68,1.8,1.8,87,0.00,,,0.00,WUHU216HW,2013-07-13 00:36:00,
2013-07-12 20:42:00,68.9,64.9,30.03,South,180,1.8,2.7,87,0.00,,,0.00,WUHU216HW,2013-07-13 00:42:00,
2013-07-12 20:47:00,68.9,64.9,30.04,SE,135,1.8,2.7,87,0.00,,,0.00,WUHU216HW,2013-07-13 00:47:00,
2013-07-12 20:52:00,68.9,64.9,30.04,SE,135,0.4,3.4,87,0.00,,,0.00,WUHU216HW,2013-07-13 00:52:00,
2013-07-12 20:57:00,68.7,64.7,30.04,SSW,203,0.7,3.4,87,0.00,,,0.00,WUHU216HW,2013-07-13 00:57:00,
2013-07-12 21:03:00,68.7,64.7,30.04,WNW,293,0.4,2.7,87,0.00,,,0.00,WUHU216HW,2013-07-13 01:03:00,
2013-07-12 21:08:00,68.7,64.7,30.04,WSW,248,1.1,2.7,87,0.00,,,0.00,WUHU216HW,2013-07-13 01:08:00,
2013-07-12 21:13:00,68.7,64.7,30.05,East,90,0.0,5.8,87,0.00,,,0.00,WUHU216HW,2013-07-13 01:13:00,
2013-07-12 21:18:00,68.7,64.7,30.05,ESE,113,3.8,5.8,87,0.00,,,0.00,WUHU216HW,2013-07-13 01:18:00,
2013-07-12 21:23:00,68.6,64.6,30.05,South,180,1.8,4.0,87,0.00,,,0.00,WUHU216HW,2013-07-13 01:23:00,
2013-07-12 21:29:00,68.6,64.6,30.05,SE,135,3.6,4.0,87,0.00,,,0.00,WUHU216HW,2013-07-13 01:29:00,
2013-07-12 21:35:00,68.6,64.6,30.05,SSE,158,1.6,4.0,87,0.00,,,0.00,WUHU216HW,2013-07-13 01:35:00,
2013-07-12 21:40:00,68.6,64.6,30.05,SE,135,1.6,3.1,87,0.00,,,0.00,WUHU216HW,2013-07-13 01:40:00,
2013-07-12 21:45:00,68.6,64.6,30.05,ENE,68,2.2,2.5,87,0.00,,,0.00,WUHU216HW,2013-07-13 01:45:00,
2013-07-12 21:50:00,68.4,64.4,30.05,ENE,68,1.1,2.7,87,0.00,,,0.00,WUHU216HW,2013-07-13 01:50:00,
2013-07-12 21:55:00,68.4,64.4,30.05,NNW,338,0.4,2.7,87,0.00,,,0.00,WUHU216HW,2013-07-13 01:55:00,
2013-07-12 22:00:00,68.4,64.4,30.05,SE,135,1.8,3.1,87,0.00,,,0.00,WUHU216HW,2013-07-13 02:00:00,
2013-07-12 22:05:00,68.2,64.2,30.06,SSE,158,3.1,4.9,87,0.00,,,0.00,WUHU216HW,2013-07-13 02:05:00,
2013-07-12 22:10:00,67.7,63.4,30.06,WSW,248,2.0,5.8,86,0.00,,,0.00,WUHU216HW,2013-07-13 02:10:00,
2013-07-12 22:15:00,67.5,63.2,30.06,SSE,158,0.9,5.8,86,0.00,,,0.00,WUHU216HW,2013-07-13 02:15:00,
2013-07-12 22:21:00,67.3,63.0,30.06,WSW,248,0.4,4.0,86,0.00,,,0.00,WUHU216HW,2013-07-13 02:21:00,
2013-07-12 22:26:00,67.1,63.1,30.07,NNE,23,1.3,3.4,87,0.00,,,0.00,WUHU216HW,2013-07-13 02:26:00,
2013-07-12 22:31:00,67.1,63.1,30.07,SE,135,2.2,4.0,87,0.00,,,0.00,WUHU216HW,2013-07-13 02:31:00,
2013-07-12 22:36:00,66.9,62.9,30.06,ENE,68,3.4,4.0,87,0.00,,,0.00,WUHU216HW,2013-07-13 02:36:00,
2013-07-12 22:41:00,66.8,62.8,30.06,ESE,113,1.1,3.4,87,0.00,,,0.00,WUHU216HW,2013-07-13 02:41:00,
2013-07-12 22:46:00,66.8,63.1,30.06,South,180,1.1,2.7,88,0.00,,,0.00,WUHU216HW,2013-07-13 02:46:00,
2013-07-12 22:51:00,66.6,62.9,30.06,SE,135,0.4,2.5,88,0.00,,,0.00,WUHU216HW,2013-07-13 02:51:00,
2013-07-12 22:56:00,66.6,62.9,30.06,SE,135,0.7,2.0,88,0.00,,,0.00,WUHU216HW,2013-07-13 02:56:00,
2013-07-12 23:02:00,66.4,62.7,30.06,East,90,0.4,2.0,88,0.00,,,0.00,WUHU216HW,2013-07-13 03:02:00,
2013-07-12 23:07:00,66.4,62.7,30.06,South,180,0.9,2.2,88,0.00,,,0.00,WUHU216HW,2013-07-13 03:07:00,
2013-07-12 23:12:00,66.2,62.5,30.06,ESE,113,1.8,2.9,88,0.00,,,0.00,WUHU216HW,2013-07-13 03:12:00,
2013-07-12 23:17:00,66.0,62.3,30.06,SE,135,1.8,2.9,88,0.00,,,0.00,WUHU216HW,2013-07-13 03:17:00,
2013-07-12 23:22:00,66.0,62.6,30.07,SSE,158,1.3,2.7,89,0.00,,,0.00,WUHU216HW,2013-07-13 03:22:00,
2013-07-12 23:27:00,66.0,62.6,30.07,South,180,1.6,2.5,89,0.00,,,0.00,WUHU216HW,2013-07-13 03:27:00,
2013-07-12 23:32:00,65.9,62.6,30.07,WNW,293,1.3,2.5,89,0.00,,,0.00,WUHU216HW,2013-07-13 03:32:00,
2013-07-12 23:37:00,65.7,62.4,30.07,SSE,158,2.5,2.5,89,0.00,,,0.00,WUHU216HW,2013-07-13 03:37:00,
2013-07-12 23:42:00,65.3,62.0,30.07,SE,135,3.1,3.1,89,0.00,,,0.00,WUHU216HW,2013-07-13 03:42:00,
2013-07-12 23:47:00,65.3,62.0,30.07,WSW,248,0.7,3.1,89,0.00,,,0.00,WUHU216HW,2013-07-13 03:47:00,
2013-07-12 23:52:00,65.3,62.0,30.07,NNW,338,1.1,3.1,89,0.00,,,0.00,WUHU216HW,2013-07-13 03:52:00,
2013-07-12 23:57:00,65.1,61.8,30.07,NE,45,1.8,2.9,89,0.00,,,0.00,WUHU216HW,2013-07-13 03:57:00,